Time;durP1;ratioP1;P1;durP2;ratioP2;P2;SDS_P1;SDS_P2;PMS_P1;PMS_P2;Temp;Humidity;BMP_temperature;BMP_pressure;BME280_temperature;BME280_humidity;BME280_pressure;Samples;Min_cycle;Max_cycle;Signal;HPM_P1;HPM_P2
2021/12/17 00:05:03;;;;;;;25.30;16.97;;;5.30;99.90;;;;;;5052073;28;20446;-89
2021/12/17 00:07:35;;;;;;;20.57;16.00;;;5.40;99.90;;;;;;5073893;28;20962;-88
2021/12/17 00:10:04;;;;;;;22.10;17.00;;;5.40;99.90;;;;;;5074479;28;20458;-87
2021/12/17 00:12:31;;;;;;;20.93;16.60;;;5.40;99.90;;;;;;5074592;28;20459;-88
2021/12/17 00:14:58;;;;;;;19.93;15.60;;;5.50;99.90;;;;;;5074822;28;20446;-88
2021/12/17 00:17:32;;;;;;;19.97;15.77;;;5.50;99.90;;;;;;5074124;28;20482;-87
2021/12/17 00:20:25;;;;;;;17.60;15.70;;;5.50;99.90;;;;;;5074763;28;20454;-88
2021/12/17 00:50:51;;;;;;;17.77;15.40;;;5.60;99.90;;;;;;5074102;28;20434;-89
2021/12/17 00:53:23;;;;;;;17.87;15.40;;;5.60;99.90;;;;;;5074365;28;20479;-89
2021/12/17 00:55:50;;;;;;;19.70;16.87;;;5.60;99.90;;;;;;5074835;28;21292;-89
2021/12/17 00:58:17;;;;;;;22.30;16.80;;;5.60;99.90;;;;;;5074520;28;20455;-89
2021/12/17 01:00:45;;;;;;;22.17;17.27;;;5.60;99.90;;;;;;5074463;28;20444;-89
2021/12/17 01:03:12;;;;;;;22.07;17.37;;;5.60;99.90;;;;;;5074117;28;20601;-89
2021/12/17 01:05:40;;;;;;;21.40;17.00;;;5.70;99.90;;;;;;5080573;28;20428;-87
2021/12/17 01:08:07;;;;;;;18.47;16.47;;;5.70;99.90;;;;;;5087136;28;20448;-90
2021/12/17 01:10:37;;;;;;;19.40;15.90;;;5.60;99.90;;;;;;5074166;28;20813;-89
2021/12/17 01:13:07;;;;;;;21.10;16.47;;;5.60;99.90;;;;;;5073931;28;20650;-89
2021/12/17 01:15:34;;;;;;;22.00;16.90;;;5.50;99.90;;;;;;5073774;28;20492;-90
2021/12/17 01:18:06;;;;;;;20.77;16.60;;;5.50;99.90;;;;;;5074018;28;20447;-89
2021/12/17 01:20:54;;;;;;;22.83;16.33;;;5.60;99.90;;;;;;5074158;28;20447;-89
2021/12/17 01:23:49;;;;;;;22.70;16.13;;;5.50;99.90;;;;;;5074767;28;20501;-89
2021/12/17 01:37:48;;;;;;;19.63;15.40;;;5.70;99.90;;;;;;5073269;28;20457;-89
2021/12/17 01:42:45;;;;;;;21.83;16.50;;;5.70;99.90;;;;;;5074001;28;20483;-89
2021/12/17 01:45:13;;;;;;;24.80;16.50;;;5.60;99.90;;;;;;5074014;28;20940;-89
2021/12/17 01:47:40;;;;;;;20.87;17.77;;;5.60;99.90;;;;;;5073261;28;20561;-89
2021/12/17 01:55:50;;;;;;;23.43;17.37;;;5.70;99.90;;;;;;5097058;28;20423;-88
2021/12/17 02:01:04;;;;;;;27.63;18.87;;;5.70;99.90;;;;;;5073203;28;20550;-89
2021/12/17 02:03:31;;;;;;;22.47;18.20;;;5.80;99.90;;;;;;5073261;28;20482;-90
2021/12/17 02:05:59;;;;;;;25.47;17.30;;;5.80;99.90;;;;;;5073009;28;20956;-89
2021/12/17 02:08:25;;;;;;;23.40;19.23;;;5.80;99.90;;;;;;5072720;28;20444;-89
2021/12/17 02:22:35;;;;;;;29.03;19.27;;;5.90;99.90;;;;;;5052937;28;20565;-90
2021/12/17 02:30:52;;;;;;;26.27;18.23;;;5.90;99.90;;;;;;5073236;28;20427;-90
2021/12/17 02:33:19;;;;;;;19.83;15.23;;;5.90;99.90;;;;;;5081511;28;20500;-88
2021/12/17 02:35:48;;;;;;;20.57;17.10;;;6.00;99.90;;;;;;5081986;28;20428;-86
2021/12/17 02:38:17;;;;;;;21.80;16.37;;;5.90;99.90;;;;;;5081462;28;20487;-87
2021/12/17 02:46:12;;;;;;;20.23;16.03;;;6.00;99.90;;;;;;5078050;28;20840;-88
2021/12/17 02:48:42;;;;;;;21.60;17.10;;;6.00;99.90;;;;;;5096015;28;20423;-90
2021/12/17 02:51:09;;;;;;;22.37;16.83;;;6.00;99.90;;;;;;5077919;28;20474;-90
2021/12/17 02:53:37;;;;;;;21.30;16.80;;;6.00;99.90;;;;;;5076778;28;20435;-89
2021/12/17 02:56:07;;;;;;;19.30;16.37;;;6.10;99.90;;;;;;5076687;28;20458;-90
2021/12/17 02:58:35;;;;;;;21.40;17.27;;;6.10;99.90;;;;;;5076073;28;20962;-90
2021/12/17 03:01:05;;;;;;;21.20;18.10;;;6.10;99.90;;;;;;5076063;28;20442;-90
2021/12/17 03:03:34;;;;;;;19.07;16.90;;;6.10;99.90;;;;;;5076279;28;20510;-90
2021/12/17 03:06:01;;;;;;;20.90;16.53;;;6.10;99.90;;;;;;5076435;28;20463;-89
2021/12/17 03:08:29;;;;;;;21.40;16.93;;;6.10;99.90;;;;;;5076027;28;20447;-89
2021/12/17 03:10:59;;;;;;;20.70;15.63;;;6.20;99.90;;;;;;5075898;28;20447;-90
2021/12/17 03:13:26;;;;;;;21.10;16.17;;;6.10;99.90;;;;;;5076022;28;20818;-89
2021/12/17 03:15:57;;;;;;;18.60;16.57;;;6.10;99.90;;;;;;5082929;28;20443;-89
2021/12/17 03:23:52;;;;;;;19.53;16.87;;;6.10;99.90;;;;;;5092672;28;20470;-90
2021/12/17 03:26:23;;;;;;;17.43;14.90;;;6.20;99.90;;;;;;5101368;28;20427;-88
2021/12/17 03:28:52;;;;;;;19.90;15.23;;;6.20;99.90;;;;;;5100733;28;20443;-88
2021/12/17 03:31:20;;;;;;;18.43;16.30;;;6.20;99.90;;;;;;5100944;28;20461;-88
2021/12/17 03:33:49;;;;;;;21.10;16.90;;;6.20;99.90;;;;;;5100764;28;20435;-87
2021/12/17 03:36:18;;;;;;;21.00;16.50;;;6.20;99.90;;;;;;5084115;28;20439;-90
2021/12/17 03:38:47;;;;;;;18.40;15.40;;;6.20;99.90;;;;;;5093750;28;20428;-89
2021/12/17 03:41:19;;;;;;;20.53;16.70;;;6.20;99.90;;;;;;5091373;28;20459;-89
2021/12/17 03:43:48;;;;;;;19.70;17.37;;;6.20;99.90;;;;;;5088124;28;20482;-88
2021/12/17 03:46:16;;;;;;;18.83;16.27;;;6.20;99.90;;;;;;5091475;28;20440;-90
2021/12/17 03:48:43;;;;;;;19.97;15.73;;;6.20;99.90;;;;;;5078096;28;20944;-90
2021/12/17 03:51:14;;;;;;;19.57;15.33;;;6.20;99.90;;;;;;5076147;28;20466;-90
2021/12/17 03:53:42;;;;;;;18.70;15.67;;;6.20;99.90;;;;;;5077797;28;20454;-89
2021/12/17 03:56:09;;;;;;;24.73;19.13;;;6.20;99.90;;;;;;5076984;28;20452;-90
2021/12/17 03:58:36;;;;;;;19.27;16.00;;;6.20;99.90;;;;;;5077055;28;20459;-89
2021/12/17 04:01:05;;;;;;;25.47;18.93;;;6.20;99.90;;;;;;5085554;28;20432;-88
2021/12/17 04:03:32;;;;;;;23.17;18.07;;;6.30;99.90;;;;;;5093469;28;20475;-88
2021/12/17 04:06:00;;;;;;;20.77;18.50;;;6.30;99.90;;;;;;5090480;28;20435;-89
2021/12/17 04:08:26;;;;;;;21.57;18.20;;;6.30;99.90;;;;;;5079100;28;20458;-89
2021/12/17 04:11:01;;;;;;;22.90;17.90;;;6.30;99.90;;;;;;5079133;28;20443;-89
2021/12/17 04:13:32;;;;;;;24.00;19.30;;;6.30;99.90;;;;;;5091462;28;20451;-87
2021/12/17 04:16:01;;;;;;;22.40;19.00;;;6.30;99.90;;;;;;5088548;28;20439;-89
2021/12/17 04:18:32;;;;;;;27.43;19.83;;;6.30;99.90;;;;;;5076348;28;20455;-89
2021/12/17 04:21:01;;;;;;;26.93;18.70;;;6.30;99.90;;;;;;5076013;28;20459;-89
2021/12/17 04:23:28;;;;;;;21.80;18.00;;;6.40;99.90;;;;;;5076005;28;20490;-90
2021/12/17 04:25:55;;;;;;;23.03;19.33;;;6.40;99.90;;;;;;5075396;28;20845;-89
2021/12/17 04:28:22;;;;;;;19.57;17.47;;;6.30;99.90;;;;;;5076383;28;20463;-89
2021/12/17 04:30:50;;;;;;;21.67;18.67;;;6.30;99.90;;;;;;5099571;28;20428;-87
2021/12/17 04:33:17;;;;;;;20.30;17.37;;;6.40;99.90;;;;;;5096163;28;20485;-90
2021/12/17 04:35:46;;;;;;;26.07;19.30;;;6.40;99.90;;;;;;5077024;28;20497;-89
2021/12/17 04:38:15;;;;;;;24.37;18.43;;;6.40;99.90;;;;;;5096601;28;20436;-88
2021/12/17 04:40:43;;;;;;;25.47;19.43;;;6.30;99.90;;;;;;5076078;28;20494;-90
2021/12/17 04:43:32;;;;;;;20.93;17.23;;;6.30;99.90;;;;;;5077733;28;20518;-89
2021/12/17 04:46:12;;;;;;;22.63;19.63;;;6.30;99.90;;;;;;5098101;28;20439;-87
2021/12/17 04:59:37;;;;;;;24.27;19.77;;;6.30;99.90;;;;;;5073479;28;20550;-89
2021/12/17 05:02:04;;;;;;;25.80;20.47;;;6.30;99.90;;;;;;5079791;28;20474;-89
2021/12/17 05:04:31;;;;;;;24.33;19.73;;;6.40;99.90;;;;;;5073899;28;20479;-89
2021/12/17 05:06:59;;;;;;;30.23;18.17;;;6.40;99.90;;;;;;5073483;28;20454;-89
2021/12/17 05:09:33;;;;;;;21.10;18.60;;;6.40;99.90;;;;;;5072002;28;20452;-89
2021/12/17 05:20:30;;;;;;;21.27;17.27;;;6.40;99.90;;;;;;5080608;28;20495;-88
2021/12/17 05:23:00;;;;;;;25.40;19.43;;;6.40;99.90;;;;;;5073338;28;20527;-89
2021/12/17 05:25:29;;;;;;;24.23;17.43;;;6.50;99.90;;;;;;5073094;28;20538;-89
2021/12/17 05:28:00;;;;;;;22.03;19.17;;;6.40;99.90;;;;;;5072030;28;20448;-89
2021/12/17 05:30:27;;;;;;;23.07;18.97;;;6.40;99.90;;;;;;5073646;28;20463;-89
2021/12/17 05:32:54;;;;;;;24.37;19.73;;;6.40;99.90;;;;;;5073547;28;20471;-88
2021/12/17 05:35:21;;;;;;;23.67;19.90;;;6.40;99.90;;;;;;5072758;28;20479;-89
2021/12/17 05:37:47;;;;;;;25.67;19.80;;;6.40;99.90;;;;;;5072750;28;20454;-88
2021/12/17 05:40:16;;;;;;;19.70;17.23;;;6.40;99.90;;;;;;5073107;28;20510;-89
2021/12/17 05:42:43;;;;;;;22.27;17.63;;;6.40;99.90;;;;;;5076880;28;20467;-88
2021/12/17 05:45:21;;;;;;;21.93;18.10;;;6.40;99.90;;;;;;5096459;28;20491;-86
2021/12/17 05:47:48;;;;;;;24.10;18.70;;;6.20;99.90;;;;;;5097244;28;20453;-85
2021/12/17 05:50:15;;;;;;;19.60;17.47;;;6.30;99.90;;;;;;5089793;28;20451;-88
2021/12/17 05:52:42;;;;;;;26.77;20.00;;;6.30;99.90;;;;;;5088852;28;20467;-86
2021/12/17 05:55:09;;;;;;;21.80;17.47;;;6.40;99.90;;;;;;5092325;28;20446;-89
2021/12/17 05:57:37;;;;;;;21.17;17.87;;;6.40;99.90;;;;;;5073456;28;20443;-88
2021/12/17 06:00:05;;;;;;;20.43;17.93;;;6.40;99.90;;;;;;5073965;28;20455;-89
2021/12/17 06:02:32;;;;;;;20.07;17.77;;;6.40;99.90;;;;;;5073617;28;20460;-89
2021/12/17 06:04:59;;;;;;;24.30;18.60;;;6.30;99.90;;;;;;5072924;28;20475;-89
2021/12/17 06:07:27;;;;;;;23.63;18.30;;;6.30;99.90;;;;;;5072844;28;20461;-89
2021/12/17 06:09:54;;;;;;;21.77;18.33;;;6.40;99.90;;;;;;5073080;28;20447;-89
2021/12/17 06:12:20;;;;;;;24.60;18.50;;;6.40;99.90;;;;;;5078097;28;20466;-90
2021/12/17 06:14:48;;;;;;;21.63;18.07;;;6.40;99.90;;;;;;5077507;28;20812;-89
2021/12/17 06:17:15;;;;;;;22.80;18.73;;;6.40;99.90;;;;;;5074311;28;20466;-88
2021/12/17 06:19:42;;;;;;;19.60;17.50;;;6.40;99.90;;;;;;5073097;28;20459;-88
2021/12/17 06:22:09;;;;;;;23.83;17.57;;;6.50;99.90;;;;;;5085693;28;20467;-86
2021/12/17 06:24:36;;;;;;;19.63;17.60;;;6.50;99.90;;;;;;5087108;28;20461;-87
2021/12/17 06:27:03;;;;;;;22.27;18.33;;;6.50;99.90;;;;;;5069178;28;20442;-89
2021/12/17 06:29:33;;;;;;;19.93;16.97;;;6.60;99.90;;;;;;5064968;28;20814;-89
2021/12/17 06:32:01;;;;;;;21.90;16.87;;;6.50;99.90;;;;;;5059607;28;20463;-88
2021/12/17 06:34:28;;;;;;;21.73;18.90;;;6.60;99.90;;;;;;5068661;28;20962;-90
2021/12/17 06:36:54;;;;;;;23.90;18.67;;;6.60;99.90;;;;;;5069069;28;20448;-88
2021/12/17 06:39:21;;;;;;;18.50;16.50;;;6.60;99.90;;;;;;5063561;28;20444;-87
2021/12/17 06:41:48;;;;;;;24.80;17.00;;;6.60;99.90;;;;;;5066713;28;20452;-89
2021/12/17 06:44:22;;;;;;;19.73;15.67;;;6.60;99.90;;;;;;5063760;28;20473;-92
2021/12/17 06:46:56;;;;;;;23.40;16.70;;;6.60;99.90;;;;;;5061634;28;20452;-86
2021/12/17 06:49:30;;;;;;;20.90;16.07;;;6.50;99.90;;;;;;5064946;28;20504;-87
2021/12/17 06:55:01;;;;;;;17.53;15.00;;;6.60;99.90;;;;;;5087436;28;20423;-86
2021/12/17 07:00:22;;;;;;;19.80;16.30;;;6.70;99.90;;;;;;5069293;28;20472;-86
2021/12/17 07:11:35;;;;;;;24.30;17.57;;;6.70;99.90;;;;;;5073870;28;20456;-90
2021/12/17 07:22:22;;;;;;;21.63;16.60;;;6.60;99.90;;;;;;5078131;28;20968;-91
2021/12/17 07:24:52;;;;;;;24.23;17.60;;;6.60;99.90;;;;;;5078845;28;20569;-91
2021/12/17 07:33:06;;;;;;;19.63;15.23;;;6.30;99.90;;;;;;5089346;28;20469;-92
2021/12/17 07:35:44;;;;;;;18.63;15.30;;;6.30;99.90;;;;;;5078500;28;20447;-90
2021/12/17 07:40:58;;;;;;;18.30;16.30;;;6.10;99.90;;;;;;5081582;28;20438;-91
2021/12/17 07:43:29;;;;;;;19.40;15.77;;;6.00;99.90;;;;;;5081126;28;20454;-91
2021/12/17 07:45:57;;;;;;;21.13;17.53;;;5.90;99.90;;;;;;5079048;28;20454;-92
2021/12/17 07:48:24;;;;;;;20.30;15.90;;;5.90;99.90;;;;;;5077869;28;20432;-92
2021/12/17 07:50:51;;;;;;;20.80;17.10;;;5.90;99.90;;;;;;5079319;28;20443;-91
2021/12/17 07:53:20;;;;;;;17.63;15.73;;;5.90;99.90;;;;;;5082475;28;20962;-91
2021/12/17 07:55:47;;;;;;;18.47;15.73;;;6.00;99.90;;;;;;5077043;28;20436;-91
2021/12/17 07:58:14;;;;;;;17.30;14.60;;;6.00;99.90;;;;;;5077092;28;20448;-91
2021/12/17 08:00:42;;;;;;;18.20;15.50;;;6.00;99.90;;;;;;5077276;28;20443;-91
2021/12/17 08:03:11;;;;;;;17.63;14.30;;;6.00;99.90;;;;;;5090280;28;20511;-92
2021/12/17 08:05:39;;;;;;;17.37;15.03;;;6.00;99.90;;;;;;5078930;28;20529;-90
2021/12/17 08:08:06;;;;;;;17.80;14.80;;;6.10;99.90;;;;;;5074884;28;20447;-88
2021/12/17 08:10:34;;;;;;;15.90;13.60;;;6.20;99.90;;;;;;5075254;28;20451;-88
2021/12/17 08:13:00;;;;;;;19.77;13.27;;;6.40;99.90;;;;;;5115340;22;20983;-78
2021/12/17 08:15:33;;;;;;;18.60;13.63;;;6.50;99.90;;;;;;5103990;28;20439;-81
2021/12/17 08:26:40;;;;;;;12.77;11.27;;;6.40;99.90;;;;;;5093316;28;20466;-83
2021/12/17 08:29:25;;;;;;;14.30;11.80;;;6.40;99.90;;;;;;5094562;28;20436;-83
2021/12/17 08:31:53;;;;;;;11.47;10.20;;;6.30;99.90;;;;;;5083234;28;20509;-85
2021/12/17 08:34:20;;;;;;;13.50;10.93;;;6.20;99.90;;;;;;5078275;28;20471;-84
2021/12/17 08:36:46;;;;;;;11.30;9.70;;;6.30;99.90;;;;;;5079081;28;20447;-84
2021/12/17 08:39:13;;;;;;;12.07;9.63;;;6.30;99.90;;;;;;5081946;28;20447;-84
2021/12/17 08:41:42;;;;;;;9.33;8.43;;;6.40;99.90;;;;;;5074743;28;20440;-86
2021/12/17 08:44:09;;;;;;;9.70;8.60;;;6.50;99.90;;;;;;5071420;28;20566;-84
2021/12/17 08:46:36;;;;;;;15.73;12.07;;;6.40;99.90;;;;;;5070794;28;20766;-85
2021/12/17 08:49:05;;;;;;;8.73;7.80;;;7.10;99.90;;;;;;5085661;28;20438;-82
2021/12/17 08:51:32;;;;;;;8.40;7.57;;;8.10;99.90;;;;;;5076561;28;20451;-83
2021/12/17 08:53:59;;;;;;;8.67;7.87;;;8.30;99.90;;;;;;5080129;28;20459;-84
2021/12/17 08:56:29;;;;;;;9.20;8.20;;;8.80;99.90;;;;;;5082099;28;20509;-84
2021/12/17 08:58:57;;;;;;;7.00;6.30;;;10.20;99.90;;;;;;5072481;28;20451;-86
2021/12/17 09:01:24;;;;;;;7.67;6.97;;;10.40;99.90;;;;;;5072560;28;20446;-83
2021/12/17 09:03:51;;;;;;;5.93;5.33;;;10.20;99.90;;;;;;5071725;28;20830;-82
2021/12/17 09:06:17;;;;;;;8.43;6.77;;;9.90;99.90;;;;;;5070550;28;20451;-83
2021/12/17 09:08:44;;;;;;;7.20;6.17;;;9.90;99.90;;;;;;5067041;28;20452;-83
2021/12/17 09:11:11;;;;;;;7.73;7.03;;;9.70;99.90;;;;;;5084421;28;20454;-83
2021/12/17 09:13:38;;;;;;;8.83;6.90;;;9.60;99.90;;;;;;5077285;28;20475;-85
2021/12/17 09:16:07;;;;;;;8.90;8.00;;;9.70;99.90;;;;;;5072588;28;20502;-86
2021/12/17 09:18:34;;;;;;;9.90;8.70;;;9.00;99.90;;;;;;5080763;28;20454;-84
2021/12/17 09:21:01;;;;;;;9.50;7.20;;;8.70;99.90;;;;;;5091829;28;20442;-82
2021/12/17 09:23:28;;;;;;;8.03;7.23;;;8.80;99.90;;;;;;5077876;28;20464;-85
2021/12/17 09:25:55;;;;;;;9.37;7.80;;;8.90;99.90;;;;;;5060658;28;20483;-83
2021/12/17 09:28:22;;;;;;;10.77;9.20;;;8.60;99.90;;;;;;5059697;28;20456;-85
2021/12/17 09:30:49;;;;;;;7.47;6.70;;;8.40;99.90;;;;;;5057560;28;20956;-84
2021/12/17 09:33:17;;;;;;;10.70;8.20;;;8.40;99.90;;;;;;5073540;28;20467;-83
2021/12/17 09:35:44;;;;;;;10.60;7.60;;;8.60;99.90;;;;;;5080487;28;20843;-83
2021/12/17 09:38:10;;;;;;;9.90;8.47;;;8.60;99.90;;;;;;5074233;28;20443;-84
2021/12/17 09:40:37;;;;;;;7.63;6.83;;;8.60;99.90;;;;;;5075130;28;20458;-84
2021/12/17 09:43:04;;;;;;;11.03;8.27;;;8.50;99.90;;;;;;5074370;28;20471;-84
2021/12/17 09:45:31;;;;;;;10.70;7.90;;;8.60;99.90;;;;;;5073620;28;20553;-83
2021/12/17 09:47:58;;;;;;;9.60;7.80;;;8.80;99.90;;;;;;5076183;28;21273;-82
2021/12/17 09:50:26;;;;;;;7.93;6.90;;;8.90;99.90;;;;;;5069159;28;20455;-85
2021/12/17 09:52:53;;;;;;;7.77;7.00;;;9.40;99.90;;;;;;5068385;28;21006;-86
2021/12/17 09:55:20;;;;;;;10.40;8.20;;;10.10;99.90;;;;;;5072391;28;20478;-85
2021/12/17 09:57:47;;;;;;;8.33;7.53;;;10.70;99.90;;;;;;5078961;28;20819;-83
2021/12/17 10:00:16;;;;;;;9.50;6.87;;;10.90;99.90;;;;;;5077739;28;20451;-83
2021/12/17 10:02:44;;;;;;;8.30;7.50;;;11.00;99.90;;;;;;5066737;28;20606;-84
2021/12/17 10:05:14;;;;;;;6.97;6.37;;;11.60;99.80;;;;;;5071093;28;20472;-84
2021/12/17 10:07:44;;;;;;;8.40;7.67;;;12.30;98.20;;;;;;5080158;28;20443;-85
2021/12/17 10:10:13;;;;;;;7.60;6.97;;;13.40;96.90;;;;;;5096962;28;20454;-85
2021/12/17 10:12:41;;;;;;;8.77;7.97;;;14.40;94.20;;;;;;5097449;28;20463;-83
2021/12/17 10:15:10;;;;;;;7.60;6.87;;;15.50;92.30;;;;;;5086767;28;20454;-85
2021/12/17 10:17:49;;;;;;;7.60;6.90;;;16.00;90.00;;;;;;5075412;28;20534;-85
2021/12/17 10:20:16;;;;;;;9.97;7.07;;;16.20;88.80;;;;;;5060386;28;20459;-86
2021/12/17 10:22:46;;;;;;;7.40;6.70;;;16.50;86.50;;;;;;5069492;28;20467;-85
2021/12/17 10:25:13;;;;;;;6.77;6.17;;;17.60;82.70;;;;;;5073600;28;20515;-84
2021/12/17 10:27:42;;;;;;;7.10;6.50;;;19.20;78.80;;;;;;5074812;28;20444;-85
2021/12/17 10:30:13;;;;;;;8.50;7.73;;;20.60;72.90;;;;;;5084353;28;20457;-84
2021/12/17 10:32:42;;;;;;;8.93;7.80;;;20.80;69.70;;;;;;5073224;28;20471;-85
2021/12/17 10:35:11;;;;;;;8.93;8.10;;;21.10;66.10;;;;;;5080411;28;20455;-85
2021/12/17 10:37:41;;;;;;;8.73;8.03;;;20.10;66.70;;;;;;5075634;28;20887;-85
2021/12/17 10:40:21;;;;;;;9.60;8.80;;;20.10;67.30;;;;;;5084611;28;20439;-83
2021/12/17 10:42:58;;;;;;;9.43;8.63;;;21.10;66.20;;;;;;5083752;28;20471;-84
2021/12/17 10:45:27;;;;;;;10.33;9.40;;;21.90;63.10;;;;;;5078368;28;20955;-85
2021/12/17 10:48:19;;;;;;;9.67;8.83;;;22.50;59.30;;;;;;5066074;28;20450;-85
2021/12/17 10:50:46;;;;;;;9.70;8.83;;;22.40;59.40;;;;;;5078075;28;20541;-84
2021/12/17 10:53:13;;;;;;;9.50;8.70;;;21.40;61.20;;;;;;5076600;28;20478;-84
2021/12/17 10:55:46;;;;;;;8.97;8.17;;;22.00;59.90;;;;;;5061502;28;20447;-84
2021/12/17 10:58:12;;;;;;;7.70;7.00;;;22.70;59.10;;;;;;5077729;28;20471;-84
2021/12/17 11:00:47;;;;;;;8.20;7.60;;;22.90;57.20;;;;;;5087819;28;20503;-84
2021/12/17 11:03:14;;;;;;;8.67;7.97;;;23.20;56.90;;;;;;5093932;28;20468;-83
2021/12/17 11:05:41;;;;;;;8.80;8.10;;;23.80;56.10;;;;;;5078795;28;20477;-84
2021/12/17 11:08:20;;;;;;;9.33;8.43;;;24.00;56.20;;;;;;5084348;28;20459;-84
2021/12/17 11:10:57;;;;;;;8.70;7.90;;;24.50;54.00;;;;;;5090247;28;20450;-84
2021/12/17 11:13:24;;;;;;;10.20;9.40;;;23.70;54.40;;;;;;5080978;28;20479;-84
2021/12/17 11:15:51;;;;;;;10.23;9.33;;;22.70;55.60;;;;;;5077749;28;20443;-87
2021/12/17 11:18:20;;;;;;;11.03;10.13;;;21.70;57.30;;;;;;5078811;28;20451;-88
2021/12/17 11:20:52;;;;;;;10.80;9.80;;;21.90;57.50;;;;;;5092400;28;20451;-90
2021/12/17 11:23:36;;;;;;;10.67;9.77;;;21.40;58.50;;;;;;5081721;28;20975;-91
2021/12/17 11:26:04;;;;;;;10.97;9.97;;;22.50;56.30;;;;;;5076625;28;20486;-86
2021/12/17 11:28:31;;;;;;;9.17;8.37;;;22.00;55.70;;;;;;5082961;28;20451;-89
2021/12/17 11:30:58;;;;;;;9.93;8.90;;;20.70;57.40;;;;;;5097871;28;20442;-91
2021/12/17 11:33:25;;;;;;;8.50;7.70;;;19.50;59.70;;;;;;5085376;28;20476;-86
2021/12/17 11:35:54;;;;;;;9.77;8.83;;;19.90;61.00;;;;;;5079011;28;20450;-87
2021/12/17 11:38:45;;;;;;;8.43;7.73;;;21.10;59.30;;;;;;5079855;28;20458;-87
2021/12/17 11:41:22;;;;;;;10.17;9.27;;;22.30;57.30;;;;;;5077432;28;20475;-87
2021/12/17 11:43:54;;;;;;;10.07;9.27;;;23.40;55.90;;;;;;5080018;28;21039;-87
2021/12/17 11:46:25;;;;;;;9.60;8.70;;;24.70;53.90;;;;;;5076720;28;20487;-87
2021/12/17 11:48:54;;;;;;;8.57;7.87;;;25.20;52.30;;;;;;5076568;28;20457;-88
2021/12/17 11:51:24;;;;;;;8.60;7.80;;;25.30;51.00;;;;;;5076395;28;20445;-88
2021/12/17 11:54:02;;;;;;;8.10;7.50;;;24.50;50.30;;;;;;5070273;28;20523;-87
2021/12/17 11:56:41;;;;;;;8.77;7.90;;;23.70;51.40;;;;;;5078343;28;20496;-87
2021/12/17 11:59:10;;;;;;;7.70;7.10;;;21.80;54.10;;;;;;5080262;28;20477;-88
2021/12/17 12:01:51;;;;;;;7.50;6.90;;;23.20;54.60;;;;;;5081028;28;20455;-87
2021/12/17 12:04:41;;;;;;;8.70;7.77;;;23.50;52.70;;;;;;5090283;28;20467;-87
2021/12/17 12:07:11;;;;;;;7.33;6.73;;;21.80;53.50;;;;;;5090069;28;20474;-88
2021/12/17 12:10:09;;;;;;;7.70;7.00;;;21.60;55.30;;;;;;5095295;28;20523;-89
2021/12/17 12:12:57;;;;;;;7.83;7.13;;;21.80;55.40;;;;;;5070080;28;20475;-89
2021/12/17 12:15:31;;;;;;;7.53;6.83;;;22.20;56.00;;;;;;5078482;28;20580;-88
2021/12/17 12:18:22;;;;;;;10.57;9.67;;;23.50;54.40;;;;;;5076730;28;20501;-88
2021/12/17 12:20:56;;;;;;;7.63;7.03;;;23.20;53.60;;;;;;5059993;28;20960;-88
2021/12/17 12:23:39;;;;;;;7.60;6.90;;;22.50;54.40;;;;;;5077522;28;20476;-87
2021/12/17 12:26:16;;;;;;;7.67;6.90;;;23.10;54.10;;;;;;5072665;28;20480;-88
2021/12/17 12:28:56;;;;;;;7.70;7.00;;;23.00;53.70;;;;;;5067080;28;20456;-89
2021/12/17 12:31:48;;;;;;;10.43;7.20;;;23.30;53.80;;;;;;5092470;28;20467;-89
2021/12/17 12:34:17;;;;;;;7.33;6.73;;;22.30;53.80;;;;;;5091842;28;20559;-88
2021/12/17 12:36:54;;;;;;;8.10;7.40;;;21.80;55.50;;;;;;5087579;28;20504;-89
2021/12/17 12:39:24;;;;;;;8.83;7.80;;;20.90;56.50;;;;;;5083131;28;20521;-88
2021/12/17 12:41:59;;;;;;;8.80;7.90;;;21.00;57.00;;;;;;5069828;28;20542;-88
2021/12/17 12:45:08;;;;;;;8.47;7.77;;;19.20;57.40;;;;;;5083613;28;20474;-89
2021/12/17 12:47:42;;;;;;;8.20;7.30;;;18.40;60.90;;;;;;5083640;28;20435;-86
2021/12/17 12:50:11;;;;;;;7.93;7.23;;;17.80;62.30;;;;;;5083214;28;20494;-89
2021/12/17 12:52:41;;;;;;;8.03;7.27;;;16.70;65.40;;;;;;5081159;28;20467;-88
2021/12/17 12:55:15;;;;;;;7.87;7.13;;;16.30;68.10;;;;;;5072402;28;20517;-88
2021/12/17 12:57:43;;;;;;;8.03;7.33;;;16.00;69.00;;;;;;5074609;28;20447;-89
2021/12/17 13:00:14;;;;;;;8.10;7.40;;;15.80;70.20;;;;;;5082036;28;20428;-88
2021/12/17 13:02:43;;;;;;;7.73;7.00;;;15.40;71.70;;;;;;5094545;28;20466;-88
2021/12/17 13:05:11;;;;;;;8.47;7.77;;;15.50;72.40;;;;;;5080453;28;20939;-88
2021/12/17 13:07:42;;;;;;;7.57;6.80;;;16.00;71.90;;;;;;5078082;28;20452;-87
2021/12/17 13:10:12;;;;;;;8.10;7.30;;;15.60;72.00;;;;;;5074181;28;20458;-89
2021/12/17 13:12:39;;;;;;;7.40;6.70;;;15.10;73.50;;;;;;5065820;28;20487;-89
2021/12/17 13:15:19;;;;;;;8.20;7.07;;;14.50;75.20;;;;;;5077067;28;20461;-89
2021/12/17 13:21:02;;;;;;;8.00;6.83;;;13.90;79.10;;;;;;5081096;28;20454;-89
2021/12/17 13:23:39;;;;;;;8.70;7.93;;;14.00;78.70;;;;;;5089070;28;20470;-88
2021/12/17 13:26:09;;;;;;;7.13;6.43;;;14.20;78.20;;;;;;5075840;28;20490;-89
2021/12/17 13:28:55;;;;;;;9.10;6.87;;;14.30;78.70;;;;;;5092797;28;20457;-88
2021/12/17 13:31:45;;;;;;;7.90;7.10;;;14.60;78.70;;;;;;5081744;28;20446;-90
2021/12/17 13:34:18;;;;;;;7.47;6.87;;;15.00;77.90;;;;;;5088264;28;20449;-89
2021/12/17 13:36:54;;;;;;;7.93;7.20;;;15.00;76.60;;;;;;5088381;28;20450;-89
2021/12/17 13:39:21;;;;;;;9.87;8.60;;;15.20;77.30;;;;;;5091240;28;20439;-88
2021/12/17 13:41:48;;;;;;;8.70;7.87;;;16.00;76.70;;;;;;5090874;28;20451;-88
2021/12/17 13:44:40;;;;;;;9.63;8.73;;;16.70;74.00;;;;;;5090388;28;20524;-88
2021/12/17 13:47:13;;;;;;;9.13;8.20;;;16.70;73.30;;;;;;5066831;28;20484;-87
2021/12/17 13:49:44;;;;;;;8.70;7.50;;;16.80;73.00;;;;;;5082130;28;20471;-88
2021/12/17 13:52:12;;;;;;;9.20;8.30;;;16.40;72.80;;;;;;5076494;28;20458;-87
2021/12/17 13:54:39;;;;;;;8.57;7.77;;;16.00;74.30;;;;;;5076031;28;20448;-88
2021/12/17 13:57:11;;;;;;;9.73;8.67;;;15.50;75.70;;;;;;5077207;28;20456;-87
2021/12/17 13:59:37;;;;;;;9.50;8.50;;;15.40;77.10;;;;;;5078095;28;20455;-88
2021/12/17 14:02:09;;;;;;;8.67;7.87;;;14.80;77.80;;;;;;5076182;28;20452;-88
2021/12/17 14:04:37;;;;;;;8.20;7.30;;;14.50;79.40;;;;;;5060610;28;20464;-88
2021/12/17 14:07:10;;;;;;;9.20;8.30;;;14.30;80.40;;;;;;5077825;28;20488;-88
2021/12/17 14:09:37;;;;;;;9.60;8.60;;;13.70;81.80;;;;;;5073458;28;20443;-87
2021/12/17 14:12:12;;;;;;;9.13;8.23;;;13.30;83.90;;;;;;5071599;28;20455;-87
2021/12/17 14:14:39;;;;;;;9.27;8.30;;;12.80;85.50;;;;;;5081068;28;20444;-87
2021/12/17 14:17:09;;;;;;;9.43;8.60;;;12.40;87.10;;;;;;5100283;22;20498;-89
2021/12/17 14:19:43;;;;;;;10.93;9.87;;;12.20;89.00;;;;;;5086642;28;20451;-90
2021/12/17 14:22:28;;;;;;;12.33;9.50;;;12.00;90.10;;;;;;5074726;28;20449;-89
2021/12/17 14:24:57;;;;;;;11.67;9.60;;;11.80;90.70;;;;;;5091804;28;20943;-90
2021/12/17 14:27:41;;;;;;;12.03;10.03;;;11.70;91.20;;;;;;5080496;28;20979;-89
2021/12/17 14:30:09;;;;;;;10.90;9.30;;;11.60;91.60;;;;;;5095288;28;20431;-91
2021/12/17 14:32:40;;;;;;;12.23;10.87;;;11.50;92.00;;;;;;5079026;28;20466;-90
2021/12/17 14:35:07;;;;;;;11.10;10.00;;;11.30;92.50;;;;;;5067998;28;20443;-89
2021/12/17 14:37:48;;;;;;;12.00;10.43;;;11.20;92.90;;;;;;5084923;28;20458;-89
2021/12/17 14:40:31;;;;;;;12.03;9.60;;;11.00;93.60;;;;;;5082469;28;20451;-89
2021/12/17 14:42:58;;;;;;;10.70;9.13;;;10.70;93.90;;;;;;5078126;28;20470;-89
2021/12/17 14:45:34;;;;;;;11.80;10.60;;;10.60;93.90;;;;;;5089954;28;20462;-91
2021/12/17 14:48:19;;;;;;;11.73;10.57;;;10.40;94.10;;;;;;5108675;28;20434;-88
2021/12/17 15:02:24;;;;;;;12.83;11.50;;;9.70;97.40;;;;;;5113163;28;20499;-91
2021/12/17 15:04:53;;;;;;;13.80;12.30;;;9.60;97.80;;;;;;5083818;28;20420;-89
2021/12/17 15:07:31;;;;;;;12.63;11.43;;;9.70;98.10;;;;;;5119406;28;20482;-87
2021/12/17 15:09:59;;;;;;;13.53;12.13;;;9.70;98.20;;;;;;5111005;28;20795;-89
2021/12/17 15:12:37;;;;;;;13.40;12.03;;;9.70;98.20;;;;;;5100389;28;20434;-91
2021/12/17 15:15:08;;;;;;;12.73;11.50;;;9.70;98.40;;;;;;5112033;28;20438;-89
2021/12/17 15:17:41;;;;;;;13.17;11.77;;;9.70;98.50;;;;;;5100347;28;20436;-91
2021/12/17 15:20:10;;;;;;;12.80;11.57;;;9.70;98.80;;;;;;5087424;28;20862;-89
2021/12/17 15:22:37;;;;;;;15.13;13.73;;;9.70;98.90;;;;;;5083631;28;20478;-90
2021/12/17 15:25:08;;;;;;;13.37;12.10;;;9.60;98.90;;;;;;5093146;28;20436;-87
2021/12/17 15:27:35;;;;;;;14.70;13.30;;;9.60;99.00;;;;;;5079822;28;20475;-88
2021/12/17 15:30:03;;;;;;;13.00;11.60;;;9.60;99.20;;;;;;5079436;28;20451;-90
2021/12/17 15:32:30;;;;;;;14.13;12.63;;;9.60;99.40;;;;;;5080175;28;20458;-89
2021/12/17 15:34:57;;;;;;;15.80;12.50;;;9.50;99.50;;;;;;5097914;22;20497;-89